Time;durP1;ratioP1;P1;durP2;ratioP2;P2;SDS_P1;SDS_P2;PMS_P1;PMS_P2;Temp;Humidity;BMP_temperature;BMP_pressure;BME280_temperature;BME280_humidity;BME280_pressure;Samples;Min_cycle;Max_cycle;Signal;HPM_P1;HPM_P2
2022/05/22 00:00:45;;;;;;;12.80;3.57;;;12.10;91.00;;;;;;5039341;28;20480;-78
2022/05/22 00:03:12;;;;;;;6.07;5.27;;;12.10;91.30;;;;;;5040288;28;20474;-78
2022/05/22 00:05:40;;;;;;;9.83;7.00;;;12.00;91.60;;;;;;5043071;28;20723;-80
2022/05/22 00:08:08;;;;;;;12.03;5.13;;;12.10;91.30;;;;;;5041915;28;20870;-75
2022/05/22 00:10:35;;;;;;;8.30;5.30;;;12.00;91.40;;;;;;5048717;28;20511;-76
2022/05/22 00:13:02;;;;;;;15.77;10.00;;;11.90;91.30;;;;;;5036222;28;20492;-75
2022/05/22 00:15:28;;;;;;;8.40;6.60;;;11.80;91.30;;;;;;5034299;28;20493;-75
2022/05/22 00:17:57;;;;;;;5.90;4.30;;;11.70;91.20;;;;;;5041653;28;20496;-79
2022/05/22 00:20:24;;;;;;;7.83;5.97;;;;;;;;;;5041838;28;21550;-76
2022/05/22 00:22:52;;;;;;;8.13;5.70;;;11.50;92.20;;;;;;5041375;28;20478;-75
2022/05/22 00:25:19;;;;;;;13.47;7.50;;;11.50;92.00;;;;;;5044258;28;20905;-77
2022/05/22 00:27:46;;;;;;;7.87;4.03;;;11.60;91.90;;;;;;5042512;28;20476;-80
2022/05/22 00:30:14;;;;;;;7.00;5.10;;;11.50;91.60;;;;;;5045271;28;20477;-77
2022/05/22 00:32:42;;;;;;;6.87;5.87;;;11.50;92.20;;;;;;5046042;28;20556;-80
2022/05/22 00:35:09;;;;;;;9.30;4.47;;;12.20;92.10;;;;;;5061171;28;20873;-76
2022/05/22 00:37:35;;;;;;;5.30;4.80;;;11.60;91.60;;;;;;5040250;28;20481;-78
2022/05/22 00:40:05;;;;;;;12.43;8.43;;;11.70;91.30;;;;;;5046204;28;20494;-77
2022/05/22 00:42:32;;;;;;;13.37;9.53;;;11.70;91.10;;;;;;5033280;28;20476;-75
2022/05/22 00:44:59;;;;;;;10.30;7.87;;;11.60;91.10;;;;;;5038517;28;21114;-78
2022/05/22 00:47:26;;;;;;;7.23;5.47;;;11.50;91.40;;;;;;5034186;28;21164;-77
2022/05/22 00:49:59;;;;;;;6.43;5.33;;;11.50;91.80;;;;;;5035341;28;20477;-79
2022/05/22 00:52:30;;;;;;;6.27;4.70;;;11.50;92.10;;;;;;5046037;28;20486;-77
2022/05/22 00:55:01;;;;;;;10.50;7.73;;;11.40;91.90;;;;;;5046814;28;20494;-77
2022/05/22 00:57:34;;;;;;;15.60;5.50;;;11.20;91.90;;;;;;5047519;28;20486;-78
2022/05/22 01:00:07;;;;;;;10.37;8.23;;;11.20;92.10;;;;;;5046376;28;20490;-76
2022/05/22 01:05:15;;;;;;;13.23;5.50;;;11.40;92.30;;;;;;5033823;28;20999;-77
2022/05/22 01:07:42;;;;;;;11.50;5.23;;;11.40;91.80;;;;;;5046084;28;20485;-74
2022/05/22 01:10:10;;;;;;;7.17;6.00;;;11.40;91.50;;;;;;5042237;28;20489;-75
2022/05/22 01:12:41;;;;;;;6.00;5.43;;;11.40;91.30;;;;;;5049954;28;20474;-74
2022/05/22 01:15:09;;;;;;;9.00;5.57;;;11.30;91.30;;;;;;5045327;28;20474;-74
2022/05/22 01:17:40;;;;;;;6.63;5.43;;;11.30;91.30;;;;;;5044019;28;20475;-76
2022/05/22 01:20:07;;;;;;;10.47;7.40;;;11.10;91.20;;;;;;5045435;28;20601;-78
2022/05/22 01:22:35;;;;;;;16.40;4.63;;;11.30;91.60;;;;;;5048594;28;20490;-78
2022/05/22 01:25:02;;;;;;;9.53;7.90;;;11.20;91.70;;;;;;5057418;28;20492;-76
2022/05/22 01:27:29;;;;;;;10.33;5.20;;;11.20;91.80;;;;;;5045118;28;21079;-76
2022/05/22 01:30:09;;;;;;;17.83;6.67;;;11.10;91.80;;;;;;5044966;28;20481;-74
2022/05/22 01:32:37;;;;;;;5.70;5.10;;;11.10;92.00;;;;;;5046777;28;20477;-76
2022/05/22 01:35:05;;;;;;;14.33;7.17;;;11.10;91.80;;;;;;5044053;28;20489;-76
2022/05/22 01:37:32;;;;;;;5.47;4.57;;;11.10;91.80;;;;;;5040668;28;20949;-77
2022/05/22 01:39:59;;;;;;;11.47;8.83;;;10.90;92.10;;;;;;5044696;28;20486;-78
2022/05/22 01:42:26;;;;;;;6.93;5.30;;;10.80;93.00;;;;;;5043570;28;20512;-78
2022/05/22 01:44:53;;;;;;;7.50;6.17;;;10.80;92.80;;;;;;5041631;28;20872;-75
2022/05/22 01:47:20;;;;;;;5.53;4.90;;;10.90;92.60;;;;;;5042756;28;20490;-76
2022/05/22 01:49:46;;;;;;;5.43;3.63;;;10.70;92.60;;;;;;5048963;28;20501;-76
2022/05/22 01:52:13;;;;;;;5.23;4.43;;;10.80;92.80;;;;;;5043718;28;20491;-77
2022/05/22 01:54:40;;;;;;;14.10;5.33;;;10.80;92.60;;;;;;5043075;28;20489;-75
2022/05/22 01:57:08;;;;;;;13.97;6.13;;;10.90;92.70;;;;;;5041998;28;20986;-74
2022/05/22 01:59:35;;;;;;;9.30;7.33;;;10.90;92.50;;;;;;5038426;28;20471;-77
2022/05/22 02:02:02;;;;;;;10.43;6.60;;;10.90;92.50;;;;;;5041456;28;20489;-77
2022/05/22 02:04:30;;;;;;;5.40;4.47;;;10.90;92.10;;;;;;5041956;28;20486;-77
2022/05/22 02:09:40;;;;;;;5.37;4.73;;;11.00;92.40;;;;;;5032202;28;20921;-74
2022/05/22 02:12:09;;;;;;;8.50;5.73;;;10.90;92.00;;;;;;5040435;28;20548;-73
2022/05/22 02:14:36;;;;;;;8.40;5.90;;;10.80;92.40;;;;;;5044734;28;20486;-78
2022/05/22 02:17:03;;;;;;;38.30;8.47;;;10.80;92.30;;;;;;5035354;28;20491;-78
2022/05/22 02:19:30;;;;;;;7.60;5.50;;;10.80;92.20;;;;;;5044322;28;20486;-76
2022/05/22 02:21:57;;;;;;;8.57;6.53;;;10.80;92.30;;;;;;5043451;28;21194;-75
2022/05/22 02:24:24;;;;;;;21.33;5.30;;;10.70;92.50;;;;;;5064410;28;20491;-76
2022/05/22 02:26:51;;;;;;;5.33;4.17;;;10.50;92.90;;;;;;5041471;28;20486;-76
2022/05/22 02:29:19;;;;;;;6.00;4.70;;;10.40;93.60;;;;;;5047722;28;20486;-74
2022/05/22 02:31:45;;;;;;;30.87;5.70;;;10.40;93.50;;;;;;5042981;28;20978;-76
2022/05/22 02:34:12;;;;;;;6.60;5.40;;;10.40;93.20;;;;;;5036710;28;20485;-75
2022/05/22 02:36:39;;;;;;;5.60;4.73;;;10.40;93.20;;;;;;5042011;28;20503;-75
2022/05/22 02:39:05;;;;;;;5.50;5.00;;;10.40;92.80;;;;;;5037469;28;20876;-76
2022/05/22 02:41:32;;;;;;;4.80;4.40;;;10.40;92.90;;;;;;5044897;28;20511;-74
2022/05/22 02:43:59;;;;;;;5.97;5.47;;;10.30;93.50;;;;;;5043441;28;20478;-75
2022/05/22 02:46:28;;;;;;;5.30;4.33;;;10.10;94.10;;;;;;5044732;28;20477;-74
2022/05/22 02:48:55;;;;;;;6.13;5.50;;;10.10;94.30;;;;;;5047072;28;20485;-74
2022/05/22 02:51:22;;;;;;;4.70;4.30;;;10.10;94.10;;;;;;5040501;28;20490;-77
2022/05/22 02:53:49;;;;;;;4.37;3.40;;;10.20;93.70;;;;;;5046021;28;20478;-74
2022/05/22 02:56:18;;;;;;;4.53;3.50;;;10.20;93.40;;;;;;5042700;28;20498;-76
2022/05/22 02:58:45;;;;;;;5.00;4.60;;;10.10;93.40;;;;;;5029431;28;20478;-75
2022/05/22 03:01:12;;;;;;;28.27;4.57;;;10.10;93.70;;;;;;5057173;28;20482;-76
2022/05/22 03:03:40;;;;;;;5.30;3.93;;;10.10;93.70;;;;;;5055443;28;20504;-77
2022/05/22 03:08:52;;;;;;;9.10;3.47;;;10.30;93.00;;;;;;5046205;28;20483;-78
2022/05/22 03:11:19;;;;;;;3.33;3.03;;;10.40;92.90;;;;;;5048976;28;20860;-75
2022/05/22 03:13:46;;;;;;;28.03;4.20;;;10.40;92.30;;;;;;5064704;28;20794;-76
2022/05/22 03:16:14;;;;;;;3.40;3.10;;;10.40;92.20;;;;;;5037067;27;20495;-75
2022/05/22 03:18:42;;;;;;;7.27;3.43;;;10.40;92.10;;;;;;5072585;28;20483;-76
2022/05/22 03:21:09;;;;;;;12.40;3.07;;;10.40;92.20;;;;;;5044956;28;21024;-77
2022/05/22 03:23:37;;;;;;;4.40;2.90;;;10.40;92.10;;;;;;5059330;28;20496;-75
2022/05/22 03:26:04;;;;;;;9.47;6.20;;;10.50;92.10;;;;;;5052376;28;20473;-76
2022/05/22 03:28:31;;;;;;;9.50;3.53;;;10.50;91.80;;;;;;5061493;28;20496;-73
2022/05/22 03:30:57;;;;;;;7.60;6.33;;;10.50;91.80;;;;;;5059679;28;20497;-76
2022/05/22 03:33:24;;;;;;;8.77;2.73;;;10.50;91.60;;;;;;5059825;28;20839;-74
2022/05/22 03:35:52;;;;;;;28.23;4.13;;;10.50;91.50;;;;;;5059158;28;21073;-75
2022/05/22 03:38:19;;;;;;;2.50;2.27;;;10.50;91.60;;;;;;5063384;28;20473;-76
2022/05/22 03:40:48;;;;;;;2.60;2.40;;;10.40;91.60;;;;;;5062014;28;20477;-73
2022/05/22 03:43:15;;;;;;;11.83;2.90;;;10.40;91.70;;;;;;5061272;28;20890;-73
2022/05/22 03:45:45;;;;;;;4.27;3.13;;;10.40;91.80;;;;;;5057194;28;20488;-75
2022/05/22 03:48:12;;;;;;;3.53;3.23;;;10.30;92.00;;;;;;5060629;28;20883;-74
2022/05/22 03:50:39;;;;;;;14.33;3.40;;;10.40;92.20;;;;;;5057690;28;20488;-77
2022/05/22 03:53:08;;;;;;;4.43;4.03;;;10.40;92.20;;;;;;5052274;28;20835;-75
2022/05/22 03:55:35;;;;;;;4.70;3.27;;;10.50;92.30;;;;;;5051411;28;20490;-75
2022/05/22 03:58:02;;;;;;;11.63;2.40;;;10.50;92.20;;;;;;5080149;28;20492;-74
2022/05/22 04:00:29;;;;;;;3.30;3.00;;;10.60;92.10;;;;;;5056649;28;20838;-76
2022/05/22 04:02:56;;;;;;;6.40;5.37;;;10.60;92.10;;;;;;5052386;28;20483;-74
2022/05/22 04:05:23;;;;;;;13.53;4.03;;;10.60;92.00;;;;;;5050210;28;20562;-74
2022/05/22 04:07:50;;;;;;;4.77;2.70;;;10.60;92.00;;;;;;5060573;28;20474;-75
2022/05/22 04:10:20;;;;;;;2.33;2.13;;;;;;;;;;5061190;28;21002;-77
2022/05/22 04:12:47;;;;;;;3.40;3.10;;;10.30;92.20;;;;;;5060543;28;20485;-78
2022/05/22 04:15:18;;;;;;;4.03;3.23;;;10.20;92.50;;;;;;5059688;28;20489;-76
2022/05/22 04:17:45;;;;;;;6.63;3.77;;;10.10;92.80;;;;;;5058539;28;20462;-75
2022/05/22 04:20:13;;;;;;;4.50;3.63;;;10.10;93.10;;;;;;5052733;28;20557;-74
2022/05/22 04:25:11;;;;;;;7.70;3.70;;;10.10;93.00;;;;;;5056983;28;20487;-74
2022/05/22 04:25:40;;;;;;;3.00;2.60;;;10.10;93.10;;;;;;5058785;28;20489;-73
2022/05/22 04:28:09;;;;;;;5.93;3.20;;;10.10;93.10;;;;;;5051487;28;20505;-76
2022/05/22 04:30:36;;;;;;;10.37;3.47;;;10.10;93.20;;;;;;5070051;28;20572;-74
2022/05/22 04:33:03;;;;;;;5.50;4.40;;;10.10;93.40;;;;;;5058688;28;20815;-74
2022/05/22 04:35:30;;;;;;;8.93;3.47;;;10.00;93.40;;;;;;5058058;28;20495;-73
2022/05/22 04:38:01;;;;;;;15.63;5.47;;;10.00;93.80;;;;;;5071604;28;20488;-74
2022/05/22 04:40:28;;;;;;;5.27;3.07;;;9.90;94.50;;;;;;5060903;28;20493;-74
2022/05/22 04:42:57;;;;;;;5.10;4.60;;;10.00;94.10;;;;;;5057628;28;20481;-76
2022/05/22 04:45:23;;;;;;;6.00;5.40;;;10.10;94.20;;;;;;5058944;28;20476;-74
2022/05/22 04:47:51;;;;;;;6.83;3.80;;;10.10;94.30;;;;;;5057064;28;20478;-77
2022/05/22 04:50:19;;;;;;;11.40;3.40;;;10.10;94.50;;;;;;5061580;28;20493;-74
2022/05/22 04:52:46;;;;;;;3.60;2.93;;;10.20;94.50;;;;;;5061138;28;20471;-75
2022/05/22 04:55:13;;;;;;;3.40;3.10;;;10.20;94.50;;;;;;5059704;28;20496;-76
2022/05/22 04:57:40;;;;;;;4.70;3.77;;;10.40;94.40;;;;;;5060117;28;20577;-74
2022/05/22 05:00:10;;;;;;;5.03;4.43;;;10.50;94.50;;;;;;5059423;28;20532;-75
2022/05/22 05:02:38;;;;;;;4.50;4.10;;;10.40;94.40;;;;;;5059564;28;20478;-74
2022/05/22 05:05:08;;;;;;;5.50;4.80;;;10.50;94.60;;;;;;5057769;28;20485;-77
2022/05/22 05:07:36;;;;;;;5.47;3.60;;;10.70;94.70;;;;;;5054702;28;20484;-74
2022/05/22 05:10:03;;;;;;;6.50;5.80;;;10.80;94.60;;;;;;5057520;28;20867;-75
2022/05/22 05:12:30;;;;;;;12.07;3.50;;;11.10;94.50;;;;;;5058235;28;20481;-77
2022/05/22 05:14:57;;;;;;;8.10;6.33;;;11.30;94.50;;;;;;5058878;28;20570;-77
2022/05/22 05:17:25;;;;;;;6.03;3.30;;;11.40;94.60;;;;;;5057664;28;20519;-75
2022/05/22 05:19:51;;;;;;;6.17;3.70;;;11.70;94.50;;;;;;5057875;28;20489;-75
2022/05/22 05:22:19;;;;;;;3.50;3.20;;;11.90;94.60;;;;;;5060838;28;20489;-77
2022/05/22 05:24:46;;;;;;;4.53;4.13;;;12.10;94.70;;;;;;5059314;28;20481;-73
2022/05/22 05:27:12;;;;;;;12.40;3.60;;;12.50;94.70;;;;;;5057817;28;20494;-76
2022/05/22 05:29:39;;;;;;;3.63;3.30;;;12.70;94.60;;;;;;5060128;28;20517;-77
2022/05/22 05:32:08;;;;;;;7.53;5.10;;;12.90;94.60;;;;;;5059380;28;20489;-76
2022/05/22 05:34:40;;;;;;;12.73;5.20;;;13.10;94.60;;;;;;5059611;28;20880;-78
2022/05/22 05:37:09;;;;;;;6.87;5.60;;;13.30;94.70;;;;;;5058697;28;21012;-76
2022/05/22 05:39:36;;;;;;;4.50;4.10;;;;;;;;;;5060476;28;20628;-79
2022/05/22 05:42:03;;;;;;;6.63;5.97;;;13.60;94.70;;;;;;5061631;28;20484;-77
2022/05/22 05:44:33;;;;;;;6.90;4.33;;;13.80;94.80;;;;;;5061925;28;21229;-76
2022/05/22 05:46:59;;;;;;;7.73;5.67;;;14.00;94.60;;;;;;5056978;28;21096;-77
2022/05/22 05:49:26;;;;;;;4.70;4.00;;;14.10;94.70;;;;;;5060025;28;20566;-76
2022/05/22 05:51:54;;;;;;;6.23;5.63;;;14.20;94.80;;;;;;5056901;28;20482;-76
2022/05/22 05:54:22;;;;;;;10.93;3.93;;;14.30;94.70;;;;;;5062378;28;21290;-77
2022/05/22 05:56:49;;;;;;;5.40;4.57;;;14.30;94.80;;;;;;5059193;28;20496;-77
2022/05/22 05:59:17;;;;;;;6.40;5.23;;;14.40;94.70;;;;;;5061821;28;21168;-74
2022/05/22 06:01:43;;;;;;;6.60;5.53;;;14.50;94.60;;;;;;5062762;28;20494;-79
2022/05/22 06:04:10;;;;;;;7.13;6.43;;;14.50;94.80;;;;;;5057164;28;20483;-76
2022/05/22 06:06:37;;;;;;;5.40;4.90;;;14.60;94.90;;;;;;5044066;28;20882;-76
2022/05/22 06:09:06;;;;;;;8.63;7.70;;;14.80;94.90;;;;;;5088060;28;20494;-75
2022/05/22 06:11:32;;;;;;;6.40;5.53;;;14.90;95.00;;;;;;5057773;28;20493;-76
2022/05/22 06:13:59;;;;;;;9.83;7.93;;;14.90;95.10;;;;;;5060855;28;20474;-78
2022/05/22 06:16:26;;;;;;;7.30;5.57;;;15.10;94.60;;;;;;5053764;28;20485;-75
2022/05/22 06:18:53;;;;;;;9.67;8.30;;;15.20;94.50;;;;;;5059618;27;20734;-77
2022/05/22 06:21:22;;;;;;;8.10;5.70;;;15.30;94.80;;;;;;5069250;28;20484;-75
2022/05/22 06:23:49;;;;;;;13.10;5.60;;;15.40;94.70;;;;;;5059393;28;20512;-76
2022/05/22 06:26:18;;;;;;;6.87;5.53;;;15.60;94.70;;;;;;5059050;28;21265;-75
2022/05/22 06:28:47;;;;;;;7.10;6.30;;;15.70;94.60;;;;;;5062345;28;20485;-77
2022/05/22 06:31:14;;;;;;;13.83;4.90;;;15.90;94.50;;;;;;5061132;28;20493;-78
2022/05/22 06:33:41;;;;;;;7.47;5.63;;;16.10;94.60;;;;;;5058540;28;20489;-75
2022/05/22 06:36:09;;;;;;;9.97;7.73;;;16.20;94.90;;;;;;5056900;28;20477;-78
2022/05/22 06:41:23;;;;;;;5.77;4.70;;;16.70;94.80;;;;;;5056734;28;20481;-77
2022/05/22 06:43:51;;;;;;;13.63;5.50;;;16.80;94.10;;;;;;5059993;28;20490;-77
2022/05/22 06:46:19;;;;;;;6.20;5.00;;;17.00;93.90;;;;;;5057147;28;20485;-77
2022/05/22 06:48:45;;;;;;;6.80;5.50;;;17.10;93.90;;;;;;5059671;28;20489;-76
2022/05/22 06:51:14;;;;;;;11.43;5.00;;;17.30;93.60;;;;;;5059186;28;20497;-79
2022/05/22 06:53:41;;;;;;;5.07;4.63;;;17.40;93.30;;;;;;5062354;28;20494;-75
2022/05/22 06:56:08;;;;;;;7.73;6.17;;;17.60;93.20;;;;;;5058874;28;20993;-74
2022/05/22 06:58:37;;;;;;;16.30;5.70;;;17.80;93.20;;;;;;5060831;28;20597;-74
2022/05/22 07:01:04;;;;;;;12.33;8.00;;;17.90;93.10;;;;;;5062401;28;20485;-74
2022/05/22 07:03:31;;;;;;;5.30;4.50;;;18.10;92.70;;;;;;5061693;28;20486;-75
2022/05/22 07:05:57;;;;;;;17.97;8.30;;;18.40;92.10;;;;;;5051463;28;20544;-78
2022/05/22 07:08:24;;;;;;;5.20;4.70;;;18.50;92.20;;;;;;5062109;28;20528;-77
2022/05/22 07:13:36;;;;;;;6.13;5.53;;;19.00;91.80;;;;;;5051971;28;20600;-77
2022/05/22 07:16:06;;;;;;;8.20;6.20;;;19.20;91.60;;;;;;5057125;28;20478;-75
2022/05/22 07:18:33;;;;;;;11.27;4.87;;;19.50;91.80;;;;;;5061915;28;20524;-74
2022/05/22 07:21:00;;;;;;;8.53;6.30;;;19.70;90.20;;;;;;5060632;28;20479;-76
2022/05/22 07:23:27;;;;;;;6.97;5.50;;;19.90;90.70;;;;;;5051812;28;20483;-75
2022/05/22 07:25:53;;;;;;;13.97;7.10;;;20.20;91.00;;;;;;5051054;28;20482;-76
2022/05/22 07:28:21;;;;;;;5.73;5.10;;;20.30;90.00;;;;;;5049173;28;20558;-78
2022/05/22 07:30:49;;;;;;;4.60;4.03;;;20.60;88.60;;;;;;5059389;28;20492;-78
2022/05/22 07:33:16;;;;;;;12.10;4.33;;;20.90;89.40;;;;;;5072305;28;20493;-73
2022/05/22 07:35:53;;;;;;;7.63;5.00;;;21.10;87.50;;;;;;5056844;28;21617;-74
2022/05/22 07:38:19;;;;;;;11.33;5.30;;;21.30;86.50;;;;;;5059992;28;20868;-77
2022/05/22 07:40:46;;;;;;;5.77;4.47;;;21.50;87.50;;;;;;5060642;28;20490;-74
2022/05/22 07:43:14;;;;;;;9.70;4.70;;;21.70;87.50;;;;;;5070089;28;21029;-77
2022/05/22 07:45:41;;;;;;;6.33;5.73;;;21.80;87.50;;;;;;5060854;28;20647;-75
2022/05/22 07:48:09;;;;;;;12.40;8.30;;;22.00;84.80;;;;;;5076574;28;21089;-74
2022/05/22 07:50:36;;;;;;;7.33;6.27;;;22.20;86.40;;;;;;5053311;28;20485;-74
2022/05/22 07:53:03;;;;;;;29.07;7.30;;;22.60;85.30;;;;;;5068296;28;20477;-77
2022/05/22 07:55:30;;;;;;;5.57;5.07;;;22.70;81.70;;;;;;5055639;28;20522;-74
2022/05/22 07:57:57;;;;;;;10.60;6.93;;;22.90;83.70;;;;;;5059902;28;20473;-76
2022/05/22 08:00:23;;;;;;;4.33;3.93;;;23.00;81.70;;;;;;5059394;28;20473;-74
2022/05/22 08:02:50;;;;;;;5.20;4.67;;;23.20;81.30;;;;;;5068413;28;20480;-75
2022/05/22 08:05:20;;;;;;;4.53;4.13;;;23.40;84.00;;;;;;5073117;28;20478;-77
2022/05/22 08:07:47;;;;;;;8.47;3.93;;;23.70;81.00;;;;;;5054770;28;20481;-76
2022/05/22 08:10:15;;;;;;;4.97;4.50;;;23.90;80.40;;;;;;5057256;28;21061;-75
2022/05/22 08:12:45;;;;;;;5.10;4.60;;;24.00;80.60;;;;;;5057121;28;20493;-74
2022/05/22 08:15:15;;;;;;;11.77;4.17;;;24.30;81.60;;;;;;5048325;28;20470;-78
2022/05/22 08:17:44;;;;;;;5.90;4.40;;;24.60;81.30;;;;;;5054008;28;20886;-75
2022/05/22 08:20:14;;;;;;;4.73;4.23;;;24.90;80.50;;;;;;5040255;28;20528;-74
2022/05/22 08:22:44;;;;;;;5.37;4.77;;;25.10;79.10;;;;;;5048404;28;20571;-77
2022/05/22 08:25:12;;;;;;;6.23;5.50;;;25.20;78.20;;;;;;5047042;28;20618;-78
2022/05/22 08:27:39;;;;;;;9.43;4.30;;;24.90;72.90;;;;;;5058855;28;20481;-78
2022/05/22 08:30:07;;;;;;;11.97;7.67;;;24.60;73.70;;;;;;5057602;28;20475;-76
2022/05/22 08:32:37;;;;;;;5.97;4.37;;;24.40;71.90;;;;;;5054942;28;20556;-76
2022/05/22 08:35:04;;;;;;;31.13;7.13;;;24.10;69.50;;;;;;5056927;28;20483;-77
2022/05/22 08:37:30;;;;;;;9.27;3.77;;;24.30;73.40;;;;;;5057419;28;20479;-77
2022/05/22 08:39:58;;;;;;;11.60;7.37;;;24.60;74.60;;;;;;5058841;28;20998;-77
2022/05/22 08:42:36;;;;;;;3.53;2.63;;;25.00;72.10;;;;;;5058989;28;20482;-77
2022/05/22 08:45:03;;;;;;;11.37;5.83;;;;;;;;;;5057806;28;20486;-76
2022/05/22 08:47:33;;;;;;;6.43;3.83;;;;;;;;;;5055692;28;20479;-73
2022/05/22 08:50:04;;;;;;;11.30;6.60;;;24.50;72.50;;;;;;5058303;28;20479;-78
2022/05/22 08:52:36;;;;;;;6.50;4.73;;;24.40;70.60;;;;;;5060018;28;20486;-76
2022/05/22 08:55:10;;;;;;;18.50;7.30;;;24.70;71.70;;;;;;5054936;28;20835;-75
2022/05/22 09:00:32;;;;;;;7.83;5.23;;;24.70;73.50;;;;;;5056459;28;20524;-77
2022/05/22 09:03:04;;;;;;;11.87;6.10;;;24.80;75.00;;;;;;5057712;28;20830;-78
2022/05/22 09:05:32;;;;;;;34.57;8.70;;;25.10;75.10;;;;;;5054496;28;20495;-74
2022/05/22 09:08:02;;;;;;;8.83;4.00;;;25.20;73.90;;;;;;5060002;28;20481;-76
2022/05/22 09:10:48;;;;;;;5.37;4.10;;;25.40;73.80;;;;;;5072472;28;20501;-77
2022/05/22 09:13:24;;;;;;;4.40;4.00;;;25.80;75.00;;;;;;5051168;28;20835;-75
2022/05/22 09:15:54;;;;;;;6.00;3.93;;;;;;;;;;5052444;28;20762;-73
2022/05/22 09:18:27;;;;;;;5.83;4.50;;;26.10;69.60;;;;;;5062997;28;20597;-74
2022/05/22 09:20:57;;;;;;;8.70;5.47;;;26.20;69.00;;;;;;5059215;28;20478;-77
2022/05/22 09:23:38;;;;;;;4.17;2.47;;;26.40;69.50;;;;;;5058804;28;20516;-75
2022/05/22 09:26:10;;;;;;;8.63;6.23;;;26.40;67.70;;;;;;5060214;28;20453;-76
2022/05/22 09:28:48;;;;;;;13.67;4.57;;;26.30;69.90;;;;;;5060763;28;20978;-78
2022/05/22 09:31:24;;;;;;;5.67;3.50;;;26.40;69.20;;;;;;5051609;28;20485;-78
2022/05/22 09:34:01;;;;;;;2.43;2.10;;;26.50;71.20;;;;;;5056439;28;20911;-75
2022/05/22 09:36:37;;;;;;;4.50;4.10;;;26.70;70.60;;;;;;5070645;28;20478;-77
2022/05/22 09:39:16;;;;;;;12.67;6.60;;;26.90;67.90;;;;;;5061138;28;20486;-75
2022/05/22 09:41:55;;;;;;;3.50;3.10;;;26.90;67.90;;;;;;5061249;28;20470;-75
2022/05/22 09:44:49;;;;;;;4.50;3.03;;;27.00;67.40;;;;;;5062310;28;20494;-77
2022/05/22 09:47:45;;;;;;;3.20;2.90;;;27.00;64.70;;;;;;5049388;28;20470;-76
2022/05/22 09:50:20;;;;;;;4.10;2.80;;;27.00;67.00;;;;;;5061223;28;20955;-76
2022/05/22 09:52:54;;;;;;;2.83;2.53;;;27.00;67.30;;;;;;5069257;28;21389;-76
2022/05/22 09:55:33;;;;;;;6.27;4.17;;;27.10;66.20;;;;;;5062683;28;20456;-74
2022/05/22 09:58:16;;;;;;;22.17;6.30;;;26.70;58.90;;;;;;5059263;28;20468;-77
2022/05/22 10:00:50;;;;;;;5.90;4.10;;;26.60;65.00;;;;;;5054816;28;20998;-74
2022/05/22 10:03:28;;;;;;;9.50;3.60;;;26.80;66.80;;;;;;5051705;28;20448;-77
2022/05/22 10:06:06;;;;;;;5.80;4.07;;;27.00;64.10;;;;;;5057915;28;20449;-77
2022/05/22 10:08:49;;;;;;;12.40;3.33;;;27.10;66.70;;;;;;5062940;28;20531;-76
2022/05/22 10:11:21;;;;;;;6.40;5.07;;;27.30;65.60;;;;;;5061890;28;20482;-77
2022/05/22 10:14:06;;;;;;;28.20;3.83;;;27.30;57.00;;;;;;5061751;28;20442;-75
2022/05/22 10:16:43;;;;;;;4.20;3.40;;;27.30;62.50;;;;;;5059974;28;20832;-75
2022/05/22 10:19:36;;;;;;;13.40;4.63;;;27.40;64.20;;;;;;5057673;28;20485;-74
2022/05/22 10:22:10;;;;;;;4.50;3.70;;;27.50;62.80;;;;;;5059653;28;20890;-74
2022/05/22 10:24:56;;;;;;;6.47;2.50;;;27.70;59.10;;;;;;5054682;28;20456;-75
2022/05/22 10:27:39;;;;;;;5.40;2.70;;;27.80;61.60;;;;;;5053749;28;20544;-75
2022/05/22 10:30:17;;;;;;;7.43;4.87;;;27.80;58.00;;;;;;5056267;28;20486;-74
2022/05/22 10:32:49;;;;;;;9.53;2.50;;;28.00;65.10;;;;;;5061054;28;20452;-76
2022/05/22 10:35:25;;;;;;;6.57;4.23;;;28.20;61.80;;;;;;5057353;28;20448;-75
2022/05/22 10:37:56;;;;;;;3.50;2.40;;;28.30;57.10;;;;;;5051156;28;20475;-75
2022/05/22 10:40:26;;;;;;;4.60;2.90;;;28.40;59.70;;;;;;5060434;28;20456;-76
2022/05/22 10:42:54;;;;;;;4.63;2.87;;;28.30;60.80;;;;;;5062030;28;20847;-77
2022/05/22 10:45:32;;;;;;;16.00;4.00;;;28.40;60.90;;;;;;5058973;28;20523;-75
2022/05/22 10:48:09;;;;;;;4.10;3.33;;;28.50;62.50;;;;;;5057124;28;20441;-78
2022/05/22 10:50:36;;;;;;;10.97;2.77;;;28.60;60.50;;;;;;5060620;28;20449;-76
2022/05/22 10:53:03;;;;;;;8.23;5.43;;;28.60;61.90;;;;;;5058905;28;20446;-75
2022/05/22 10:55:39;;;;;;;11.33;5.50;;;28.70;59.80;;;;;;5059122;28;20491;-77
2022/05/22 10:58:19;;;;;;;6.40;4.50;;;28.80;61.60;;;;;;5060275;28;20475;-74
2022/05/22 11:00:54;;;;;;;3.17;2.80;;;28.90;63.20;;;;;;5055810;28;20800;-76
2022/05/22 11:03:26;;;;;;;3.40;2.77;;;28.40;59.50;;;;;;5061793;28;20448;-74
2022/05/22 11:05:53;;;;;;;5.87;4.60;;;28.00;57.80;;;;;;5054595;28;20474;-77
2022/05/22 11:08:32;;;;;;;4.53;2.70;;;27.50;58.70;;;;;;5063516;28;20453;-73
2022/05/22 11:11:11;;;;;;;8.73;6.00;;;27.50;62.40;;;;;;5050332;28;20449;-72
2022/05/22 11:13:39;;;;;;;3.40;2.30;;;27.70;62.90;;;;;;5058965;28;20461;-76
2022/05/22 11:16:14;;;;;;;11.60;5.03;;;28.00;62.00;;;;;;5057104;28;20469;-75
2022/05/22 11:18:41;;;;;;;5.10;3.40;;;28.30;63.70;;;;;;5060408;28;20540;-75
2022/05/22 11:21:18;;;;;;;11.77;3.23;;;28.60;59.50;;;;;;5060360;28;20450;-74
2022/05/22 11:24:00;;;;;;;3.90;2.10;;;;;;;;;;5057662;28;20525;-75
2022/05/22 11:26:37;;;;;;;3.77;2.47;;;28.70;56.50;;;;;;5057302;28;20471;-74
2022/05/22 11:29:15;;;;;;;5.07;4.17;;;28.60;59.40;;;;;;5052260;28;20470;-75
2022/05/22 11:32:00;;;;;;;5.43;3.70;;;28.60;60.30;;;;;;5039723;28;21121;-74
2022/05/22 11:34:49;;;;;;;6.77;5.07;;;28.70;59.10;;;;;;5036388;28;20888;-75
2022/05/22 11:37:29;;;;;;;8.63;4.90;;;28.80;58.80;;;;;;5037575;28;20472;-74
2022/05/22 11:40:07;;;;;;;9.57;5.13;;;28.70;59.20;;;;;;5038455;28;20792;-75
2022/05/22 11:42:36;;;;;;;7.73;5.20;;;28.80;59.70;;;;;;5040937;28;20458;-74
2022/05/22 11:45:15;;;;;;;9.10;3.70;;;28.40;58.10;;;;;;5028811;28;20553;-76
2022/05/22 11:48:04;;;;;;;3.90;2.77;;;28.30;55.40;;;;;;5057903;28;20458;-73
2022/05/22 11:50:38;;;;;;;11.33;3.40;;;28.40;59.10;;;;;;5042437;28;20461;-76
2022/05/22 11:53:25;;;;;;;8.50;6.13;;;28.30;59.40;;;;;;5038241;28;20488;-73
2022/05/22 11:56:12;;;;;;;4.93;2.87;;;28.50;60.80;;;;;;5043780;28;20495;-74
2022/05/22 11:58:45;;;;;;;3.20;2.10;;;28.80;59.70;;;;;;5037323;28;20825;-75
2022/05/22 12:01:19;;;;;;;4.63;1.53;;;28.90;60.20;;;;;;5043296;28;20548;-74
2022/05/22 12:04:13;;;;;;;2.50;1.70;;;29.20;59.60;;;;;;5042438;28;20548;-74
2022/05/22 12:06:50;;;;;;;2.90;2.17;;;29.20;59.20;;;;;;5036465;28;20449;-74
2022/05/22 12:09:30;;;;;;;3.60;2.10;;;29.10;56.20;;;;;;5044941;28;20481;-78
2022/05/22 12:12:08;;;;;;;5.20;3.97;;;29.00;57.00;;;;;;5043988;28;20474;-75
2022/05/22 12:14:50;;;;;;;9.60;3.80;;;28.50;57.30;;;;;;5035580;28;20478;-74
2022/05/22 12:17:27;;;;;;;2.60;2.20;;;28.60;58.50;;;;;;5041054;28;20450;-76
2022/05/22 12:20:04;;;;;;;8.60;2.07;;;28.80;58.50;;;;;;5042808;28;20479;-76
2022/05/22 12:25:25;;;;;;;4.63;1.80;;;28.80;57.30;;;;;;5039923;28;20482;-75
2022/05/22 12:27:53;;;;;;;2.30;1.67;;;28.90;57.90;;;;;;5057232;28;20862;-78
2022/05/22 12:30:26;;;;;;;7.33;1.47;;;29.00;59.50;;;;;;5037626;28;20464;-78
2022/05/22 12:32:57;;;;;;;2.47;1.67;;;29.00;56.60;;;;;;5045782;28;21106;-76
2022/05/22 12:35:27;;;;;;;7.23;5.50;;;28.30;57.40;;;;;;5040980;28;20472;-76
2022/05/22 12:37:57;;;;;;;5.20;3.63;;;28.00;57.80;;;;;;5048072;28;20475;-71
2022/05/22 12:40:42;;;;;;;4.30;2.07;;;28.00;61.90;;;;;;5049070;28;20474;-74
2022/05/22 12:43:11;;;;;;;6.47;4.40;;;28.30;59.30;;;;;;5033218;28;20761;-72
2022/05/22 12:45:39;;;;;;;3.70;1.50;;;28.40;59.80;;;;;;5037785;28;21430;-73
2022/05/22 12:48:15;;;;;;;8.83;1.80;;;27.40;55.90;;;;;;5037785;28;20589;-73
2022/05/22 12:50:49;;;;;;;3.63;1.87;;;28.60;55.60;;;;;;5040509;28;20480;-75
2022/05/22 12:53:20;;;;;;;1.80;1.27;;;28.30;58.30;;;;;;5036882;28;20727;-73
2022/05/22 12:55:47;;;;;;;2.00;1.50;;;28.50;60.00;;;;;;5035543;28;22003;-72
2022/05/22 12:58:31;;;;;;;3.60;1.37;;;27.70;59.20;;;;;;5033583;28;20545;-74
2022/05/22 13:00:58;;;;;;;2.10;1.57;;;28.70;59.40;;;;;;5036336;28;20434;-72
2022/05/22 13:03:30;;;;;;;2.30;1.57;;;28.80;58.20;;;;;;5052198;28;21124;-76
2022/05/22 13:06:05;;;;;;;18.27;2.13;;;28.80;57.60;;;;;;5030927;28;20895;-74
2022/05/22 13:08:38;;;;;;;1.90;1.37;;;28.80;58.10;;;;;;5027042;28;21107;-74
2022/05/22 13:11:11;;;;;;;3.37;1.43;;;29.10;56.60;;;;;;5027743;28;20451;-72
2022/05/22 13:13:47;;;;;;;1.80;1.00;;;29.20;56.40;;;;;;5043385;28;21035;-73
2022/05/22 13:16:14;;;;;;;1.90;1.33;;;29.20;56.70;;;;;;5037195;28;20449;-73
2022/05/22 13:18:49;;;;;;;6.93;1.20;;;29.40;55.80;;;;;;5026758;28;20481;-75
2022/05/22 13:21:29;;;;;;;1.70;1.00;;;29.50;54.60;;;;;;5048906;28;20908;-73